Tropical Cyclones
[Index]
Season 2020-2021 Tropical Cyclone MARIAN Track Map
Season 2020-2021 Summaries: [BoM-AU]
<<- Previous TC | BoM 2020-2021 Season | Next TC ->>

click for intensity scale information  Lat/long Grid: Show Hide

 Date Labels: Show Hide

Bureau of Meteorology Tropical Cyclone Data

Name: MARIAN

21 Feb 2021 06:00 UTC to 09 Mar 2021 00:00 UTC

    date/time    lat    long    hPa   cat  kts
2021-02-21 06   13.3   129.8   1001         15          
2021-02-21 12   13.3   129.6   1003         15          
2021-02-21 18   13.3   129.4   1003         15          
2021-02-22 00   13.3   129.1   1004         15          
2021-02-22 06   13.0   127.9   1001         15          
2021-02-22 12   12.8   126.0   1006         15          
2021-02-22 18   12.5   124.5   1006         15          
2021-02-23 00   13.2   122.8   1002         15          
2021-02-23 06   13.3   120.9   1002         15          
2021-02-23 12   13.3   118.4   1008         15          
2021-02-23 18   13.2   116.3   1007         15          
2021-02-24 00   12.8   114.6   1002         15          
2021-02-24 06   12.8   112.4   1000         20          
2021-02-24 12   12.6   109.7    999         25          
2021-02-24 18   12.2   108.0    997         30          
2021-02-25 00   12.4   106.9    997         30          
2021-02-25 06   13.0   105.8    997         30          
2021-02-25 12   13.3   104.0    995    1    30          
2021-02-25 18   13.8   102.3    994    1    35          
2021-02-26 00   14.2   100.5    994    1    40          
2021-02-26 06   14.5    98.9    993    1    40          
2021-02-26 12   14.5    97.1    987    1    50          
2021-02-26 18   14.5    95.8    987    1    50          
2021-02-27 00   14.8    95.0    978    2    60          
2021-02-27 06   15.3    94.1    978    2    60          
2021-02-27 12   16.0    93.4    976    2    60          
2021-02-27 18   16.4    92.6    976    2    60          
2021-02-28 00   16.8    92.2    970    3    65          
2021-02-28 06   17.1    91.7    970    3    65          
2021-02-28 12   17.5    91.3    962    3    80          
2021-02-28 18   17.7    90.9    961    3    80          
2021-03-01 00   17.8    90.4    963    3    80          
2021-03-01 06   17.9    90.0    964    3    80          
2021-03-01 12   18.2    89.6    960    3    80          
2021-03-01 18   18.4    89.6    960    3    80          
2021-03-02 00   18.6    89.6    955    4    85          
2021-03-02 06   18.6    89.7    958    3    80          
2021-03-02 12   18.6    90.0    959    3    80          
2021-03-02 18   18.6    90.4    962    3    65          
2021-03-03 00   18.7    90.7    977    2    55          
2021-03-03 06   18.9    91.3    987    1    50          
2021-03-03 12   19.1    92.0    983    2    50          
2021-03-03 18   19.9    92.8    984    2    50          
2021-03-04 00   20.6    93.2    990    1    40          
2021-03-04 06   21.1    93.6    985    2    45          
2021-03-04 12   21.7    94.1    985    2    45          
2021-03-04 18   22.4    94.6    986    1    45          
2021-03-05 00   23.0    94.8    984    2    45          
2021-03-05 06   23.7    94.9    986    1    45          
2021-03-05 12   24.4    95.2    988    1    45          
2021-03-05 18   25.1    95.7    990    1    40          
2021-03-06 00   25.8    96.2    990    1    40          
2021-03-06 06   26.5    96.6    992    1    40          
2021-03-06 12   27.3    96.7    992    1    40          
2021-03-06 18   27.9    96.9    994    1    30          
2021-03-07 00   28.5    97.2    996         30          
2021-03-07 06   28.7    96.7    998         30          
2021-03-07 12   28.1    96.7   1000         25          
2021-03-07 18   28.1    97.3   1002         20          
2021-03-08 00   28.8    97.7   1004         15          
2021-03-08 06   29.6    98.2   1004         15          
2021-03-08 12   30.3    98.3   1004         15          
2021-03-09 00   31.5    97.9   1006         15          
Winds are 10-min average.

Tropical cyclone tracks developed by Michael Bath using data from the Bureau of Meteorology and Google Maps.


Document: tropical_cyclone_marian.htm
Updated: 20 April 2021
[Australian Severe Weather index] [Copyright Notice] [Email Contacts] [Search This Site] [Privacy Policy]


Main Index Home Page Stock Weather Photos Extreme Storms Discussion Storm News and Storm Chasing Reports Tropical Cyclones / Hurricanes / Typhoons Weather Data and Links Wild Fires / Bushfires Weather Observation Techniques Weather Picture Catalogue Tornado Pictures and Reports Stock Video Footage and DVDs for sale